Time;durP1;ratioP1;P1;durP2;ratioP2;P2;SDS_P1;SDS_P2;PMS_P1;PMS_P2;Temp;Humidity;BMP_temperature;BMP_pressure;BME280_temperature;BME280_humidity;BME280_pressure;Samples;Min_cycle;Max_cycle;Signal;HPM_P1;HPM_P2
2023/02/08 00:00:49;;;;;;;28.23;20.65;;;3.00;99.90;;;;;;4996420;28;20026;-89
2023/02/08 00:03:14;;;;;;;29.67;20.65;;;2.80;99.90;;;;;;4978855;28;20513;-88
2023/02/08 00:05:40;;;;;;;29.77;20.45;;;2.90;99.90;;;;;;4996283;28;20543;-88
2023/02/08 00:08:06;;;;;;;26.98;19.13;;;3.30;99.90;;;;;;4994896;28;20031;-89
2023/02/08 00:10:32;;;;;;;26.60;19.73;;;3.30;99.90;;;;;;4996157;28;20026;-89
2023/02/08 00:12:58;;;;;;;27.17;20.10;;;2.40;99.90;;;;;;4995804;28;20034;-90
2023/02/08 00:15:24;;;;;;;30.13;20.05;;;2.30;99.90;;;;;;4994558;28;20042;-89
2023/02/08 00:17:49;;;;;;;28.25;21.27;;;2.80;99.90;;;;;;4996108;28;20499;-89
2023/02/08 00:20:15;;;;;;;26.45;19.05;;;2.40;99.90;;;;;;4978673;28;20033;-89
2023/02/08 00:22:41;;;;;;;28.52;20.38;;;2.80;99.90;;;;;;4996712;28;20022;-89
2023/02/08 00:25:07;;;;;;;29.50;19.85;;;2.40;99.90;;;;;;4979048;28;20026;-89
2023/02/08 00:27:33;;;;;;;29.77;21.15;;;2.40;99.90;;;;;;4995320;28;20030;-89
2023/02/08 00:29:59;;;;;;;30.63;20.65;;;2.50;99.90;;;;;;4995878;28;20030;-89
2023/02/08 00:32:24;;;;;;;31.05;21.25;;;2.60;99.90;;;;;;4995517;28;20135;-89
2023/02/08 00:34:50;;;;;;;35.58;24.58;;;2.90;99.90;;;;;;4995585;28;20073;-89
2023/02/08 00:37:16;;;;;;;35.75;24.83;;;2.50;99.90;;;;;;4995921;28;20165;-89
2023/02/08 00:39:42;;;;;;;35.53;24.27;;;2.80;99.90;;;;;;4994290;28;20368;-89
2023/02/08 00:42:07;;;;;;;33.42;23.58;;;2.70;99.90;;;;;;4993965;28;20029;-89
2023/02/08 00:44:33;;;;;;;31.90;22.90;;;2.60;99.90;;;;;;4995398;28;20137;-89
2023/02/08 00:46:59;;;;;;;34.33;23.33;;;3.30;99.90;;;;;;4995655;28;20033;-89
2023/02/08 00:49:24;;;;;;;32.70;21.88;;;2.80;99.90;;;;;;4998198;28;20109;-89
2023/02/08 00:51:50;;;;;;;29.02;21.10;;;2.40;99.90;;;;;;4998379;28;20608;-90
2023/02/08 00:54:17;;;;;;;33.75;23.60;;;2.80;99.90;;;;;;4974388;28;20503;-89
2023/02/08 00:56:43;;;;;;;37.22;24.58;;;2.30;99.90;;;;;;4975676;28;20041;-89
2023/02/08 00:59:09;;;;;;;31.65;23.40;;;2.60;99.90;;;;;;4975288;28;20110;-88
2023/02/08 01:01:35;;;;;;;30.88;21.17;;;2.50;99.90;;;;;;4975768;28;20034;-89
2023/02/08 01:04:01;;;;;;;32.25;20.88;;;2.80;99.90;;;;;;4958386;28;20023;-88
2023/02/08 01:06:27;;;;;;;33.08;21.92;;;2.40;99.90;;;;;;4975889;28;20042;-89
2023/02/08 01:08:53;;;;;;;32.05;22.13;;;2.50;99.90;;;;;;4958232;28;20035;-88
2023/02/08 01:11:21;;;;;;;30.08;21.25;;;2.20;99.90;;;;;;4957987;28;20037;-88
2023/02/08 01:13:48;;;;;;;30.23;21.27;;;2.20;99.90;;;;;;4975392;28;20027;-88
2023/02/08 01:16:20;;;;;;;28.13;19.70;;;2.10;99.90;;;;;;4975102;28;20035;-89
2023/02/08 01:18:48;;;;;;;29.38;20.10;;;2.70;99.90;;;;;;4975347;28;20019;-89
2023/02/08 01:21:17;;;;;;;28.70;20.20;;;2.60;99.90;;;;;;4975619;28;20023;-88
2023/02/08 01:23:43;;;;;;;26.63;19.52;;;2.30;99.90;;;;;;4975327;28;20046;-88
2023/02/08 01:26:10;;;;;;;27.67;20.08;;;2.50;99.90;;;;;;4974966;28;20035;-88
2023/02/08 01:28:36;;;;;;;26.98;18.73;;;2.10;99.90;;;;;;4958143;28;20078;-88
2023/02/08 01:31:14;;;;;;;26.67;19.33;;;1.90;99.90;;;;;;4957884;28;20038;-88
2023/02/08 01:33:40;;;;;;;27.98;19.60;;;1.80;99.90;;;;;;4975211;28;20023;-88
2023/02/08 01:36:06;;;;;;;27.60;19.90;;;2.30;99.90;;;;;;4957592;28;20062;-88
2023/02/08 01:38:33;;;;;;;28.40;19.90;;;1.70;99.90;;;;;;4957761;28;20023;-89
2023/02/08 01:40:59;;;;;;;29.52;20.58;;;2.30;99.90;;;;;;4974573;28;20031;-89
2023/02/08 01:43:26;;;;;;;28.55;20.10;;;1.80;99.90;;;;;;4957652;28;20023;-88
2023/02/08 01:45:52;;;;;;;28.33;19.58;;;2.20;99.90;;;;;;4957457;28;20061;-88
2023/02/08 01:48:27;;;;;;;28.05;18.80;;;2.30;99.90;;;;;;4974985;28;20484;-89
2023/02/08 01:50:59;;;;;;;27.63;18.75;;;1.90;99.90;;;;;;4957317;28;20446;-88
2023/02/08 01:53:26;;;;;;;26.30;19.38;;;1.90;99.90;;;;;;4974834;28;20022;-88
2023/02/08 01:55:56;;;;;;;27.77;19.48;;;1.90;99.90;;;;;;4990122;28;20039;-89
2023/02/08 01:58:25;;;;;;;27.58;18.70;;;1.80;99.90;;;;;;4994098;28;20033;-89
2023/02/08 02:00:50;;;;;;;28.10;18.75;;;2.00;99.90;;;;;;4976518;28;20030;-89
2023/02/08 02:03:19;;;;;;;28.33;18.95;;;1.90;99.90;;;;;;4992760;28;20019;-88
2023/02/08 02:05:50;;;;;;;27.10;18.67;;;2.10;99.90;;;;;;4994080;28;20026;-88
2023/02/08 02:08:16;;;;;;;25.17;18.15;;;2.30;99.90;;;;;;4993765;28;20026;-88
2023/02/08 02:10:42;;;;;;;26.60;19.10;;;2.20;99.90;;;;;;4975669;28;20037;-88
2023/02/08 02:13:13;;;;;;;26.40;18.67;;;2.10;99.90;;;;;;4993554;28;20029;-88
2023/02/08 02:15:39;;;;;;;27.88;18.60;;;1.70;99.90;;;;;;4993910;28;20038;-88
2023/02/08 02:18:07;;;;;;;27.15;18.33;;;1.80;99.90;;;;;;4992509;28;20026;-88
2023/02/08 02:21:10;;;;;;;27.65;18.58;;;1.40;99.90;;;;;;4994045;28;20033;-89
2023/02/08 02:24:23;;;;;;;27.02;18.40;;;1.50;99.90;;;;;;4993393;28;20026;-88
2023/02/08 02:27:15;;;;;;;26.40;17.67;;;1.70;99.90;;;;;;4933989;29;20040;-88
2023/02/08 02:30:22;;;;;;;26.90;18.00;;;1.50;99.90;;;;;;4933726;29;20028;-88
2023/02/08 02:33:04;;;;;;;24.83;17.17;;;1.30;99.90;;;;;;4877798;29;20116;-88
2023/02/08 02:36:01;;;;;;;25.02;17.05;;;1.30;99.90;;;;;;4877670;29;20068;-89
2023/02/08 02:38:27;;;;;;;27.17;18.48;;;1.20;99.90;;;;;;4877232;29;20048;-88
2023/02/08 02:45:02;;;;;;;27.83;18.73;;;1.30;99.90;;;;;;4874112;29;20043;-88
2023/02/08 02:48:04;;;;;;;27.90;18.02;;;1.40;99.90;;;;;;4855112;29;20045;-88
2023/02/08 02:50:45;;;;;;;27.23;18.70;;;1.60;99.90;;;;;;4842937;29;20538;-88
2023/02/08 02:53:25;;;;;;;25.27;18.25;;;1.60;99.90;;;;;;4843469;29;20026;-88
2023/02/08 02:55:56;;;;;;;26.38;18.05;;;1.40;99.90;;;;;;4873834;29;20247;-88
2023/02/08 02:58:25;;;;;;;25.67;17.92;;;1.20;99.90;;;;;;4876988;29;20037;-89
2023/02/08 03:00:53;;;;;;;26.63;18.17;;;1.10;99.90;;;;;;4876786;29;20048;-88
2023/02/08 03:03:23;;;;;;;26.48;17.95;;;1.40;99.90;;;;;;4871329;29;20032;-88
2023/02/08 03:05:51;;;;;;;27.60;18.77;;;1.10;99.90;;;;;;4895146;29;20024;-88
2023/02/08 03:08:40;;;;;;;27.67;18.70;;;0.90;99.90;;;;;;4905677;29;20546;-89
2023/02/08 03:11:29;;;;;;;27.52;17.88;;;1.10;99.90;;;;;;4937245;29;20091;-88
2023/02/08 03:14:02;;;;;;;28.23;19.05;;;0.70;99.90;;;;;;4954773;29;20023;-88
2023/02/08 03:17:06;;;;;;;27.40;17.83;;;0.60;99.90;;;;;;4954388;29;20036;-88
2023/02/08 03:20:02;;;;;;;28.10;18.85;;;0.70;99.90;;;;;;4954423;29;20023;-88
2023/02/08 03:22:31;;;;;;;26.38;18.58;;;1.10;99.90;;;;;;4944350;28;20043;-88
2023/02/08 03:25:03;;;;;;;27.38;18.35;;;0.90;99.90;;;;;;4958354;29;20055;-88
2023/02/08 03:28:01;;;;;;;26.88;18.40;;;1.30;99.90;;;;;;4940873;29;20064;-88
2023/02/08 03:30:43;;;;;;;27.55;18.92;;;0.80;99.90;;;;;;4936978;29;20086;-88
2023/02/08 03:33:19;;;;;;;27.85;18.20;;;0.90;99.90;;;;;;4958073;29;20396;-88
2023/02/08 03:35:56;;;;;;;27.90;18.10;;;1.10;99.90;;;;;;4940301;29;20035;-88
2023/02/08 03:38:30;;;;;;;25.48;18.13;;;1.40;99.90;;;;;;4957942;29;20047;-88
2023/02/08 03:40:58;;;;;;;28.00;18.40;;;1.30;99.90;;;;;;4940647;29;20035;-89
2023/02/08 03:43:30;;;;;;;30.35;18.85;;;0.80;99.90;;;;;;4958087;29;20368;-88
2023/02/08 03:46:21;;;;;;;26.05;18.00;;;1.40;99.90;;;;;;4957534;28;20086;-89
2023/02/08 03:48:55;;;;;;;28.75;18.67;;;0.90;99.90;;;;;;4977325;28;20027;-89
2023/02/08 03:51:21;;;;;;;27.60;19.02;;;0.80;99.90;;;;;;4976638;28;20035;-88
2023/02/08 03:53:50;;;;;;;28.40;19.17;;;0.70;99.90;;;;;;4977006;28;20026;-89
2023/02/08 03:56:34;;;;;;;26.95;18.92;;;0.70;99.90;;;;;;4957328;29;20058;-89
2023/02/08 03:59:04;;;;;;;26.70;18.23;;;0.70;99.90;;;;;;4940482;29;20023;-88
2023/02/08 04:01:48;;;;;;;29.98;18.60;;;0.80;99.90;;;;;;4940473;29;20039;-88
2023/02/08 04:04:17;;;;;;;28.42;18.50;;;1.00;99.90;;;;;;4940088;29;20024;-88
2023/02/08 04:06:43;;;;;;;26.48;18.50;;;0.60;99.90;;;;;;4957315;29;20428;-89
2023/02/08 04:09:09;;;;;;;27.42;18.48;;;1.00;99.90;;;;;;4940409;29;20035;-88
2023/02/08 04:11:35;;;;;;;25.50;17.67;;;0.80;99.90;;;;;;4957298;29;20115;-88
2023/02/08 04:14:01;;;;;;;28.58;18.52;;;0.50;99.90;;;;;;4956248;29;20170;-89
2023/02/08 04:16:26;;;;;;;30.33;18.70;;;0.80;99.90;;;;;;4957333;29;20109;-88
2023/02/08 04:18:52;;;;;;;29.88;19.15;;;0.50;99.90;;;;;;4957016;29;20038;-88
2023/02/08 04:21:17;;;;;;;30.23;19.50;;;0.10;99.90;;;;;;4957040;29;20035;-88
2023/02/08 04:23:43;;;;;;;29.27;18.63;;;0.30;99.90;;;;;;4957184;29;20040;-88
2023/02/08 04:26:09;;;;;;;30.08;19.33;;;0.40;99.90;;;;;;4939842;29;20476;-87
2023/02/08 04:28:34;;;;;;;27.95;18.40;;;0.30;99.90;;;;;;4955697;29;20027;-88
2023/02/08 04:31:00;;;;;;;29.45;19.02;;;0.80;99.90;;;;;;4957162;29;20047;-88
2023/02/08 04:33:26;;;;;;;28.20;19.60;;;0.30;99.90;;;;;;4955155;28;20488;-87
2023/02/08 04:35:51;;;;;;;25.85;18.40;;;0.60;99.90;;;;;;4956001;29;20522;-88
2023/02/08 04:38:17;;;;;;;27.92;18.65;;;0.50;99.90;;;;;;4955637;29;20027;-89
2023/02/08 04:40:43;;;;;;;28.17;18.33;;;0.20;99.90;;;;;;4939997;29;20035;-88
2023/02/08 04:43:08;;;;;;;30.48;18.90;;;0.30;99.90;;;;;;4939684;29;20019;-88
2023/02/08 04:45:34;;;;;;;26.30;18.20;;;0.20;99.90;;;;;;4956633;29;20106;-88
2023/02/08 04:48:00;;;;;;;28.42;19.80;;;0.10;99.90;;;;;;4939674;29;20027;-88
2023/02/08 04:50:26;;;;;;;30.30;19.10;;;0.70;99.90;;;;;;4939170;29;20472;-88
2023/02/08 04:52:52;;;;;;;29.27;19.05;;;0.80;99.90;;;;;;4956890;29;20031;-88
2023/02/08 04:55:17;;;;;;;28.17;19.35;;;0.70;99.90;;;;;;4980927;28;20042;-88
2023/02/08 04:57:43;;;;;;;29.10;18.67;;;0.20;99.90;;;;;;4995660;28;20068;-88
2023/02/08 05:00:09;;;;;;;31.15;20.30;;;0.10;99.90;;;;;;4977946;28;20034;-89
2023/02/08 05:02:35;;;;;;;28.77;18.85;;;0.00;99.90;;;;;;4995219;28;20521;-88
2023/02/08 05:05:00;;;;;;;32.55;19.50;;;0.00;99.90;;;;;;4995417;28;20035;-88
2023/02/08 05:07:26;;;;;;;28.65;18.90;;;-0.10;99.90;;;;;;4997887;28;20022;-88
2023/02/08 05:09:52;;;;;;;29.52;20.25;;;0.60;99.90;;;;;;4979665;28;20034;-88
2023/02/08 05:12:17;;;;;;;29.70;19.85;;;-0.10;99.90;;;;;;4995264;28;20033;-89
2023/02/08 05:14:43;;;;;;;28.73;19.30;;;0.00;99.90;;;;;;4977494;28;20088;-88
2023/02/08 05:17:08;;;;;;;26.80;19.10;;;0.00;99.90;;;;;;4994991;28;20022;-88
2023/02/08 05:19:34;;;;;;;28.30;18.77;;;0.00;99.90;;;;;;4994462;28;20109;-87
2023/02/08 05:21:59;;;;;;;28.95;19.10;;;0.00;99.90;;;;;;4994643;28;20045;-88
2023/02/08 05:24:25;;;;;;;32.05;20.15;;;0.00;99.90;;;;;;4977407;28;20030;-88
2023/02/08 05:26:51;;;;;;;28.65;19.10;;;0.40;99.90;;;;;;4994637;28;20058;-88
2023/02/08 05:29:16;;;;;;;30.23;19.42;;;-0.10;99.90;;;;;;4994697;28;20026;-88
2023/02/08 05:31:42;;;;;;;26.80;18.27;;;-0.30;99.90;;;;;;4976987;28;20035;-88
2023/02/08 05:34:08;;;;;;;33.33;19.50;;;-0.30;99.90;;;;;;4994597;28;20030;-88
2023/02/08 05:36:33;;;;;;;30.90;19.98;;;-0.20;99.90;;;;;;4994617;28;20066;-88
2023/02/08 05:38:59;;;;;;;30.00;20.15;;;-0.20;99.90;;;;;;4994625;28;20122;-89
2023/02/08 05:41:25;;;;;;;29.58;19.33;;;-0.10;99.90;;;;;;4994800;28;20053;-88
2023/02/08 05:43:50;;;;;;;31.27;20.33;;;-0.10;99.90;;;;;;4976833;28;20606;-88
2023/02/08 05:46:16;;;;;;;31.42;20.45;;;0.30;99.90;;;;;;4993623;28;20483;-88
2023/02/08 05:48:42;;;;;;;29.40;19.92;;;-0.10;99.90;;;;;;4976716;28;20037;-89
2023/02/08 05:51:07;;;;;;;31.98;20.75;;;-0.10;99.90;;;;;;4994433;28;20022;-88
2023/02/08 05:53:33;;;;;;;29.98;19.98;;;-0.10;99.90;;;;;;4993986;28;20026;-89
2023/02/08 05:55:59;;;;;;;30.42;19.92;;;-0.10;99.90;;;;;;4977100;28;20031;-88
2023/02/08 05:58:25;;;;;;;33.67;20.70;;;-0.10;99.90;;;;;;4976677;28;20034;-89
2023/02/08 06:00:52;;;;;;;32.83;21.00;;;0.10;99.90;;;;;;4993891;28;20109;-88
2023/02/08 06:03:18;;;;;;;30.42;19.33;;;0.00;99.90;;;;;;4995156;28;20041;-88
2023/02/08 06:05:44;;;;;;;29.33;19.33;;;-0.10;99.90;;;;;;4994862;28;20026;-88
2023/02/08 06:08:09;;;;;;;30.38;20.38;;;-0.10;99.90;;;;;;4994538;28;20423;-89
2023/02/08 06:10:35;;;;;;;33.10;21.15;;;-0.30;99.90;;;;;;4994195;28;20033;-89
2023/02/08 06:13:02;;;;;;;30.05;20.10;;;0.10;99.90;;;;;;4976835;28;20031;-88
2023/02/08 06:15:27;;;;;;;32.80;19.90;;;-0.10;99.90;;;;;;4993281;28;20120;-89
2023/02/08 06:17:53;;;;;;;30.80;19.80;;;0.00;99.90;;;;;;4994311;28;20471;-92
2023/02/08 06:20:19;;;;;;;32.25;20.67;;;0.10;99.90;;;;;;4994652;28;20032;-93
2023/02/08 06:22:44;;;;;;;35.78;21.00;;;-0.10;99.90;;;;;;4994677;28;20023;-92
2023/02/08 06:25:10;;;;;;;32.05;19.77;;;0.00;99.90;;;;;;4994453;28;20445;-92
2023/02/08 06:27:36;;;;;;;30.88;20.48;;;0.50;99.90;;;;;;4994990;28;20041;-92
2023/02/08 06:30:01;;;;;;;30.75;20.40;;;-0.40;99.90;;;;;;4994266;28;20487;-91
2023/02/08 06:32:27;;;;;;;28.92;19.45;;;-0.30;99.90;;;;;;4994521;28;20027;-95
2023/02/08 06:34:53;;;;;;;30.40;20.00;;;-0.20;99.90;;;;;;4976742;28;20184;-91
2023/02/08 06:37:19;;;;;;;32.38;20.10;;;-0.20;99.90;;;;;;4976652;28;20034;-90
2023/02/08 06:39:45;;;;;;;30.75;19.23;;;-0.30;99.90;;;;;;4976932;28;20406;-91
2023/02/08 06:42:11;;;;;;;34.47;20.00;;;-0.10;99.90;;;;;;4976419;28;20383;-91
2023/02/08 06:44:36;;;;;;;32.53;20.05;;;-0.30;99.90;;;;;;4987579;28;20047;-91
2023/02/08 06:47:03;;;;;;;31.63;20.92;;;-0.30;99.90;;;;;;4974267;28;20038;-91
2023/02/08 06:49:29;;;;;;;31.50;20.55;;;-0.20;99.90;;;;;;4974353;28;20372;-90
2023/02/08 06:51:54;;;;;;;32.80;20.73;;;-0.30;99.90;;;;;;4974670;28;20046;-91
2023/02/08 06:54:20;;;;;;;32.10;20.02;;;-0.30;99.90;;;;;;4978340;28;20521;-90
2023/02/08 06:56:45;;;;;;;28.75;19.25;;;-0.40;99.90;;;;;;4993601;28;20511;-91
2023/02/08 06:59:11;;;;;;;35.53;21.33;;;-0.50;99.90;;;;;;4975891;28;20410;-91
2023/02/08 07:01:37;;;;;;;29.88;20.65;;;-0.40;99.90;;;;;;4993452;28;20019;-91
2023/02/08 07:04:02;;;;;;;32.25;20.55;;;-0.40;99.90;;;;;;4976774;28;20053;-92
2023/02/08 07:06:28;;;;;;;32.92;21.33;;;-0.30;99.90;;;;;;4990527;28;20054;-90
2023/02/08 07:08:53;;;;;;;32.90;20.48;;;-0.50;99.90;;;;;;4976281;28;20065;-91
2023/02/08 07:11:20;;;;;;;32.72;21.73;;;-0.50;99.90;;;;;;4997758;28;20403;-91
2023/02/08 07:13:47;;;;;;;34.40;20.45;;;-0.40;99.90;;;;;;4998597;28;20174;-92
2023/02/08 07:16:13;;;;;;;33.75;21.05;;;-0.20;99.90;;;;;;4985087;28;20118;-93
2023/02/08 07:18:39;;;;;;;36.28;20.35;;;-0.30;99.90;;;;;;4977066;28;20062;-96
2023/02/08 07:21:04;;;;;;;35.45;20.77;;;-0.30;99.90;;;;;;4987194;28;20027;-96
2023/02/08 07:23:30;;;;;;;39.75;22.05;;;-0.60;99.90;;;;;;4980609;28;20051;-92
2023/02/08 07:26:17;;;;;;;33.60;20.52;;;-0.30;99.90;;;;;;4980525;28;20031;-96
2023/02/08 07:28:43;;;;;;;34.13;20.58;;;-0.80;99.90;;;;;;4981086;28;20038;-96
2023/02/08 07:31:12;;;;;;;36.25;20.48;;;-0.80;99.90;;;;;;4973740;28;20027;-94
2023/02/08 07:33:38;;;;;;;35.33;22.17;;;-0.70;99.90;;;;;;4994470;28;20035;-91
2023/02/08 07:36:04;;;;;;;34.30;21.63;;;-0.60;99.90;;;;;;4976804;28;20114;-93
2023/02/08 07:38:32;;;;;;;36.75;22.02;;;-0.50;99.90;;;;;;4975305;28;20368;-95
2023/02/08 07:41:07;;;;;;;33.35;21.45;;;0.10;99.90;;;;;;4957413;28;20027;-95
2023/02/08 07:43:34;;;;;;;39.47;24.33;;;-0.20;99.90;;;;;;4973946;28;20107;-92
2023/02/08 07:46:12;;;;;;;47.75;25.85;;;0.10;99.90;;;;;;4982443;28;20047;-93
2023/02/08 07:48:38;;;;;;;31.73;21.27;;;0.20;99.90;;;;;;4954577;28;20031;-92
2023/02/08 07:51:06;;;;;;;42.83;27.08;;;0.80;99.90;;;;;;4974390;28;20045;-96
2023/02/08 07:53:33;;;;;;;52.28;30.30;;;0.40;99.90;;;;;;4973153;28;20507;-95
2023/02/08 07:56:01;;;;;;;34.75;23.10;;;0.30;99.90;;;;;;4958977;28;20027;-95
2023/02/08 07:58:26;;;;;;;55.15;32.33;;;0.60;99.90;;;;;;4965357;28;20577;-94
2023/02/08 08:00:52;;;;;;;131.82;67.47;;;0.50;99.90;;;;;;4954610;29;20031;-95
2023/02/08 08:03:18;;;;;;;142.52;71.40;;;0.60;99.90;;;;;;4954835;28;20046;-95
2023/02/08 08:05:44;;;;;;;130.45;63.80;;;1.00;99.90;;;;;;4971102;28;20027;-96
2023/02/08 08:08:10;;;;;;;129.88;60.20;;;1.20;99.90;;;;;;4957039;28;20042;-95
2023/02/08 08:10:36;;;;;;;105.97;49.75;;;2.90;99.90;;;;;;4976607;28;20026;-94
2023/02/08 08:13:02;;;;;;;63.60;31.58;;;3.00;99.90;;;;;;4960761;28;20075;-95
2023/02/08 08:15:28;;;;;;;60.97;30.50;;;2.70;99.90;;;;;;4962977;28;20054;-94
2023/02/08 08:17:54;;;;;;;41.28;25.38;;;3.00;99.90;;;;;;4968182;28;20023;-95
2023/02/08 08:20:19;;;;;;;52.92;27.25;;;3.60;99.90;;;;;;4968296;28;20454;-95
2023/02/08 08:22:45;;;;;;;84.63;38.25;;;3.90;99.90;;;;;;4980112;28;20027;-95
2023/02/08 08:25:11;;;;;;;74.20;34.80;;;5.50;99.90;;;;;;4960947;28;20399;-95
2023/02/08 08:27:37;;;;;;;66.85;30.90;;;6.90;99.90;;;;;;4960363;28;20050;-95
2023/02/08 08:30:05;;;;;;;48.13;26.48;;;8.70;99.90;;;;;;4977676;28;20038;-95
2023/02/08 08:32:30;;;;;;;62.30;28.45;;;9.70;99.90;;;;;;4976933;28;20034;-95
2023/02/08 08:34:56;;;;;;;44.10;23.00;;;10.10;99.90;;;;;;4960147;28;20031;-96
2023/02/08 08:37:21;;;;;;;37.13;20.73;;;10.30;99.90;;;;;;4976833;28;20492;-95
2023/02/08 08:39:47;;;;;;;46.13;24.52;;;10.60;99.90;;;;;;4976873;28;20030;-95
2023/02/08 08:42:12;;;;;;;46.42;23.95;;;11.30;99.90;;;;;;4976492;28;20030;-95
2023/02/08 08:44:38;;;;;;;49.08;25.65;;;11.60;99.90;;;;;;4976749;28;20433;-95
2023/02/08 08:47:04;;;;;;;54.70;26.08;;;12.10;99.90;;;;;;4976861;28;20019;-95
2023/02/08 08:49:30;;;;;;;37.05;24.08;;;12.20;99.90;;;;;;4959669;28;20447;-95
2023/02/08 08:51:57;;;;;;;52.50;25.90;;;12.60;99.90;;;;;;4977007;28;20130;-94
2023/02/08 08:54:22;;;;;;;48.20;26.67;;;13.20;99.90;;;;;;4977101;28;20042;-96
2023/02/08 08:56:48;;;;;;;54.28;28.02;;;13.50;99.90;;;;;;4976583;28;20137;-95
2023/02/08 08:59:14;;;;;;;40.97;23.83;;;13.90;99.90;;;;;;4959755;28;20037;-96
2023/02/08 09:01:41;;;;;;;49.72;29.83;;;14.50;99.90;;;;;;4976727;28;20030;-96
2023/02/08 09:04:08;;;;;;;40.78;23.55;;;14.80;99.90;;;;;;4976545;28;20110;-95
2023/02/08 09:06:34;;;;;;;32.22;22.55;;;14.70;99.90;;;;;;4976443;28;20022;-95
2023/02/08 09:09:00;;;;;;;41.22;25.83;;;14.90;99.90;;;;;;4976153;28;20023;-95
2023/02/08 09:11:26;;;;;;;31.73;22.75;;;15.10;99.90;;;;;;4976415;28;20027;-96
2023/02/08 09:13:54;;;;;;;32.03;23.42;;;15.30;99.90;;;;;;4959071;28;20019;-95
2023/02/08 09:16:22;;;;;;;32.25;23.63;;;15.80;99.90;;;;;;4977275;28;20043;-95
2023/02/08 09:18:47;;;;;;;31.90;23.50;;;16.10;99.90;;;;;;4964063;28;20373;-96
2023/02/08 09:21:16;;;;;;;34.15;24.55;;;15.00;99.90;;;;;;4983725;28;20089;-96
2023/02/08 09:23:42;;;;;;;35.90;24.38;;;15.10;99.90;;;;;;4982764;28;20019;-96
2023/02/08 09:26:11;;;;;;;35.90;26.58;;;15.00;99.90;;;;;;4959351;28;20452;-96
2023/02/08 09:28:37;;;;;;;32.33;24.55;;;15.20;99.90;;;;;;4977062;28;20039;-95
2023/02/08 09:31:10;;;;;;;38.88;27.00;;;17.00;99.90;;;;;;4959030;28;20066;-96
2023/02/08 09:33:36;;;;;;;36.10;26.42;;;17.70;99.90;;;;;;4959521;28;20438;-96
2023/02/08 09:36:02;;;;;;;35.55;26.40;;;17.10;99.90;;;;;;4958658;28;20034;-96
2023/02/08 09:38:28;;;;;;;39.60;27.77;;;17.10;99.90;;;;;;4958546;28;20031;-96
2023/02/08 09:41:25;;;;;;;36.92;26.77;;;18.20;99.90;;;;;;4976061;28;20088;-96
2023/02/08 09:44:27;;;;;;;35.78;26.25;;;19.50;99.90;;;;;;4976321;28;20046;-96
2023/02/08 09:47:06;;;;;;;35.72;28.63;;;19.60;99.90;;;;;;4956264;29;20497;-96
2023/02/08 09:49:42;;;;;;;35.03;27.95;;;18.60;99.90;;;;;;4956669;29;20472;-96
2023/02/08 09:52:40;;;;;;;30.20;26.60;;;19.90;99.90;;;;;;4955568;29;20023;-96
2023/02/08 09:55:30;;;;;;;33.13;27.50;;;20.20;99.90;;;;;;4975868;28;20406;-96
2023/02/08 09:57:58;;;;;;;37.65;29.08;;;20.80;99.90;;;;;;4976467;28;20475;-96
2023/02/08 10:00:37;;;;;;;34.67;29.35;;;21.40;99.90;;;;;;4978347;28;20026;-96
2023/02/08 10:03:04;;;;;;;31.83;28.27;;;21.50;99.90;;;;;;4978072;28;20045;-96
2023/02/08 10:05:30;;;;;;;37.95;29.35;;;21.10;99.90;;;;;;4977723;28;20026;-96
2023/02/08 10:07:57;;;;;;;32.38;28.83;;;21.30;99.90;;;;;;4977450;28;20026;-96
2023/02/08 10:10:31;;;;;;;33.05;27.40;;;21.90;99.90;;;;;;4995174;28;20022;-96
2023/02/08 10:13:27;;;;;;;33.67;29.40;;;21.00;99.90;;;;;;4977718;28;20030;-96
2023/02/08 10:16:22;;;;;;;31.85;26.08;;;20.50;99.90;;;;;;4995524;28;20049;-96
2023/02/08 10:18:47;;;;;;;32.33;27.90;;;20.70;99.90;;;;;;4994662;28;20081;-96
2023/02/08 10:21:22;;;;;;;33.72;28.50;;;20.00;99.90;;;;;;4994749;28;20446;-96
2023/02/08 10:24:08;;;;;;;30.17;27.00;;;21.90;99.90;;;;;;4994507;28;20073;-96
2023/02/08 10:26:51;;;;;;;30.52;27.42;;;22.60;99.90;;;;;;4994751;28;20045;-96
2023/02/08 10:30:08;;;;;;;31.10;27.80;;;23.20;99.90;;;;;;4977463;28;20126;-96
2023/02/08 10:32:48;;;;;;;29.23;26.00;;;23.30;99.90;;;;;;4934354;29;20102;-96
2023/02/08 10:35:23;;;;;;;31.65;26.27;;;21.90;99.90;;;;;;4935173;29;20054;-96
2023/02/08 10:37:49;;;;;;;29.85;26.38;;;21.90;99.90;;;;;;4935398;29;20019;-96
2023/02/08 10:40:19;;;;;;;28.85;25.90;;;22.80;99.90;;;;;;4934944;29;20408;-96
2023/02/08 10:42:50;;;;;;;35.42;28.00;;;22.50;99.90;;;;;;4935516;29;20043;-96
2023/02/08 10:45:26;;;;;;;28.80;25.90;;;23.80;99.90;;;;;;4936622;29;20062;-96
2023/02/08 10:48:01;;;;;;;31.73;26.55;;;24.10;99.90;;;;;;4934766;29;20039;-96
2023/02/08 10:50:35;;;;;;;29.30;26.02;;;24.90;99.90;;;;;;4936264;29;20038;-95
2023/02/08 10:53:02;;;;;;;30.05;26.35;;;23.50;99.90;;;;;;4937338;29;20030;-96
2023/02/08 10:55:30;;;;;;;32.88;28.33;;;21.50;99.90;;;;;;4936272;29;20071;-96
2023/02/08 10:58:00;;;;;;;30.73;27.50;;;23.90;99.90;;;;;;4934757;29;20035;-96
2023/02/08 11:00:29;;;;;;;32.72;28.85;;;24.00;99.90;;;;;;4934707;29;20035;-96
2023/02/08 11:02:59;;;;;;;34.33;26.77;;;24.50;99.90;;;;;;4918536;29;20119;-96
2023/02/08 11:05:25;;;;;;;29.67;25.80;;;24.20;99.90;;;;;;4934602;29;20028;-96
2023/02/08 11:08:09;;;;;;;30.08;26.85;;;25.20;99.90;;;;;;4964909;28;20068;-96
2023/02/08 11:10:36;;;;;;;32.67;26.67;;;25.50;99.90;;;;;;4977121;28;20039;-96
2023/02/08 11:13:18;;;;;;;28.60;25.70;;;26.00;99.90;;;;;;4977224;28;20077;-96
2023/02/08 11:15:51;;;;;;;30.27;26.48;;;23.80;99.90;;;;;;4994249;28;20061;-96
2023/02/08 11:18:31;;;;;;;28.08;25.25;;;23.90;99.90;;;;;;4994035;28;20089;-96
2023/02/08 11:21:07;;;;;;;28.38;25.45;;;24.60;99.90;;;;;;4993140;28;20034;-96
2023/02/08 11:23:39;;;;;;;30.88;27.92;;;25.40;99.90;;;;;;4994105;28;20026;-96
2023/02/08 11:26:20;;;;;;;30.33;27.27;;;26.30;99.90;;;;;;4994072;28;20035;-96
2023/02/08 11:28:58;;;;;;;30.73;27.50;;;25.20;99.90;;;;;;4994210;28;20105;-96
2023/02/08 11:31:24;;;;;;;28.17;25.48;;;23.30;99.90;;;;;;4994681;28;20042;-96
2023/02/08 11:34:10;;;;;;;24.60;22.10;;;23.70;99.90;;;;;;4976923;28;20027;-96
2023/02/08 11:36:45;;;;;;;24.85;22.52;;;23.90;99.90;;;;;;4993718;28;20031;-96
2023/02/08 11:39:28;;;;;;;24.23;21.85;;;23.90;99.90;;;;;;4993851;28;20506;-96
2023/02/08 11:41:58;;;;;;;23.17;20.77;;;24.30;99.90;;;;;;4994032;28;20038;-96
2023/02/08 11:44:43;;;;;;;24.67;22.25;;;23.00;99.90;;;;;;4996658;28;20057;-96
2023/02/08 11:47:13;;;;;;;25.05;21.73;;;24.30;99.90;;;;;;4997844;28;20109;-96
2023/02/08 11:49:41;;;;;;;24.20;21.40;;;24.90;99.90;;;;;;4997196;28;20034;-96
2023/02/08 11:52:27;;;;;;;24.23;21.50;;;23.50;99.90;;;;;;4997323;28;20025;-96
2023/02/08 11:54:54;;;;;;;22.80;20.50;;;24.90;99.90;;;;;;4997304;28;20045;-96
2023/02/08 11:57:23;;;;;;;22.98;20.77;;;24.20;99.90;;;;;;4980180;28;20057;-96
2023/02/08 11:59:51;;;;;;;23.90;21.50;;;24.30;99.90;;;;;;4980820;28;20041;-96
2023/02/08 12:02:38;;;;;;;22.98;20.67;;;23.80;99.90;;;;;;4980437;28;20434;-96
2023/02/08 12:05:16;;;;;;;22.77;20.40;;;24.50;99.90;;;;;;4996900;28;20514;-96
2023/02/08 12:07:47;;;;;;;21.95;19.65;;;23.90;99.90;;;;;;4997643;28;20027;-96
2023/02/08 12:10:27;;;;;;;20.48;18.48;;;22.30;99.90;;;;;;4997189;28;20105;-96
2023/02/08 12:12:53;;;;;;;21.60;19.33;;;23.50;99.90;;;;;;4980221;28;20089;-96
2023/02/08 12:15:46;;;;;;;19.38;17.38;;;23.50;99.90;;;;;;4997187;28;20034;-96
2023/02/08 12:18:24;;;;;;;18.52;16.48;;;24.20;99.90;;;;;;4996874;28;20033;-96
2023/02/08 12:21:08;;;;;;;18.80;15.73;;;25.00;99.90;;;;;;4997156;28;20471;-96
2023/02/08 12:23:46;;;;;;;18.70;16.80;;;24.10;99.90;;;;;;4997377;28;20074;-96
2023/02/08 12:26:36;;;;;;;19.33;17.38;;;25.00;99.90;;;;;;4997203;28;20044;-96
2023/02/08 12:29:24;;;;;;;15.25;13.68;;;23.80;99.90;;;;;;4996643;28;20102;-96
2023/02/08 12:32:32;;;;;;;12.73;11.45;;;23.50;99.90;;;;;;4996796;28;20108;-96
2023/02/08 12:35:22;;;;;;;12.27;10.02;;;22.70;99.90;;;;;;4996830;28;20081;-96
2023/02/08 12:41:17;;;;;;;10.32;8.13;;;23.80;99.90;;;;;;4997160;28;20037;-96
2023/02/08 12:44:12;;;;;;;8.82;7.68;;;23.50;99.90;;;;;;4996477;28;20061;-96
2023/02/08 12:46:49;;;;;;;7.65;6.20;;;22.80;99.90;;;;;;4977117;28;20053;-96
2023/02/08 12:49:34;;;;;;;7.55;5.85;;;21.50;99.90;;;;;;4977341;28;20026;-96
2023/02/08 12:52:19;;;;;;;10.73;6.22;;;21.90;99.90;;;;;;4977345;28;20439;-96
2023/02/08 12:54:49;;;;;;;9.20;6.00;;;21.10;99.90;;;;;;4984101;28;20060;-96
2023/02/08 12:57:19;;;;;;;7.72;5.50;;;19.90;99.90;;;;;;4997068;28;20102;-96
2023/02/08 12:59:47;;;;;;;8.18;6.25;;;19.70;99.90;;;;;;4998007;28;20478;-95